createdAt,value
2024-01-07T00:00:08.009Z,10.30
2024-01-07T00:02:35.753Z,10.57
2024-01-07T00:05:03.537Z,10.07
2024-01-07T00:07:31.276Z,10.40
2024-01-07T00:09:59.001Z,10.63
2024-01-07T00:12:27.559Z,9.55
2024-01-07T00:15:00.921Z,10.07
2024-01-07T00:17:33.058Z,10.65
2024-01-07T00:20:06.067Z,10.52
2024-01-07T00:22:33.896Z,10.43
2024-01-07T00:25:03.396Z,9.93
2024-01-07T00:27:32.733Z,10.55
2024-01-07T00:30:02.104Z,10.13
2024-01-07T00:32:31.444Z,9.75
2024-01-07T00:34:59.357Z,9.45
2024-01-07T00:37:27.156Z,10.00
2024-01-07T00:39:54.973Z,9.52
2024-01-07T00:42:22.866Z,8.68
2024-01-07T00:44:51.170Z,9.55
2024-01-07T00:47:21.990Z,9.13
2024-01-07T00:49:53.210Z,9.13
2024-01-07T00:52:24.072Z,9.70
2024-01-07T00:54:55.099Z,8.93
2024-01-07T00:57:26.259Z,8.20
2024-01-07T00:59:59.203Z,8.55
2024-01-07T01:02:28.857Z,8.38
2024-01-07T01:04:58.425Z,8.88
2024-01-07T01:07:29.320Z,8.73
2024-01-07T01:09:59.309Z,8.43
2024-01-07T01:12:30.224Z,8.90
2024-01-07T01:15:02.311Z,8.43
2024-01-07T01:17:36.185Z,8.70
2024-01-07T01:20:08.036Z,7.88
2024-01-07T01:22:42.196Z,8.00
2024-01-07T01:25:16.290Z,8.10
2024-01-07T01:27:47.367Z,8.55
2024-01-07T01:30:21.370Z,7.82
2024-01-07T01:32:53.387Z,7.75
2024-01-07T01:35:21.114Z,8.20
2024-01-07T01:37:48.942Z,7.90
2024-01-07T01:40:16.700Z,7.95
2024-01-07T01:42:44.443Z,7.95
2024-01-07T01:45:12.106Z,8.10
2024-01-07T01:47:39.791Z,7.85
2024-01-07T01:50:07.505Z,7.65
2024-01-07T01:52:36.003Z,8.02
2024-01-07T01:55:03.885Z,7.15
2024-01-07T01:57:31.683Z,7.43
2024-01-07T02:00:03.553Z,7.95
2024-01-07T02:02:32.681Z,7.22
2024-01-07T02:05:00.544Z,7.53
2024-01-07T02:07:28.870Z,7.20
2024-01-07T02:09:56.634Z,7.03
2024-01-07T02:12:24.343Z,7.32
2024-01-07T02:14:52.061Z,6.78
2024-01-07T02:17:19.909Z,7.10
2024-01-07T02:19:47.982Z,6.70
2024-01-07T02:22:15.774Z,7.10
2024-01-07T02:24:43.577Z,6.82
2024-01-07T02:27:11.331Z,6.95
2024-01-07T02:29:39.133Z,6.88
2024-01-07T02:32:06.876Z,7.20
2024-01-07T02:34:35.048Z,6.95
2024-01-07T02:37:02.909Z,6.93
2024-01-07T02:39:30.624Z,6.30
2024-01-07T02:41:58.331Z,7.00
2024-01-07T02:44:26.053Z,6.53
2024-01-07T02:46:53.736Z,6.63
2024-01-07T02:49:21.547Z,7.10
2024-01-07T02:51:50.681Z,6.65
2024-01-07T02:54:18.589Z,6.75
2024-01-07T02:56:46.244Z,6.72
2024-01-07T02:59:13.872Z,6.65
2024-01-07T03:01:43.803Z,6.10
2024-01-07T03:04:14.267Z,6.35
2024-01-07T03:06:41.987Z,6.35
2024-01-07T03:09:11.379Z,6.35
2024-01-07T03:11:39.083Z,6.55
2024-01-07T03:14:06.759Z,5.72
2024-01-07T03:16:34.366Z,5.88
2024-01-07T03:19:03.287Z,5.68
2024-01-07T03:21:31.345Z,5.03
2024-01-07T03:23:59.103Z,5.60
2024-01-07T03:26:26.868Z,5.93
2024-01-07T03:28:54.569Z,5.50
2024-01-07T03:31:24.527Z,6.43
2024-01-07T03:33:52.500Z,5.55
2024-01-07T03:36:20.445Z,5.53
2024-01-07T03:38:48.148Z,5.13
2024-01-07T03:41:15.833Z,5.28
2024-01-07T03:43:43.596Z,5.68
2024-01-07T03:46:11.274Z,6.30
2024-01-07T03:48:39.035Z,5.82
2024-01-07T03:51:06.811Z,4.93
2024-01-07T03:53:34.524Z,5.45
2024-01-07T03:56:02.311Z,5.20
2024-01-07T03:58:30.020Z,4.90
2024-01-07T04:00:58.314Z,5.38
2024-01-07T04:03:26.201Z,5.45
2024-01-07T04:08:38.632Z,5.10
2024-01-07T04:11:06.524Z,5.13
2024-01-07T04:13:34.194Z,5.03
2024-01-07T04:16:01.898Z,4.95
2024-01-07T04:18:30.013Z,4.95
2024-01-07T04:20:58.211Z,5.20
2024-01-07T04:23:28.013Z,5.03
2024-01-07T04:25:56.235Z,4.75
2024-01-07T04:28:29.728Z,4.55
2024-01-07T04:31:01.406Z,5.13
2024-01-07T04:33:32.208Z,4.40
2024-01-07T04:36:05.922Z,4.78
2024-01-07T04:38:39.950Z,4.85
2024-01-07T04:41:16.185Z,4.82
2024-01-07T04:43:52.212Z,4.93
2024-01-07T04:46:28.276Z,4.30
2024-01-07T04:48:58.936Z,4.60
2024-01-07T04:51:31.703Z,4.68
2024-01-07T04:54:04.668Z,4.63
2024-01-07T04:56:39.593Z,4.40
2024-01-07T04:59:16.790Z,4.75
2024-01-07T05:01:52.696Z,4.25
2024-01-07T05:04:26.013Z,4.28
2024-01-07T05:06:56.181Z,3.90
2024-01-07T05:09:28.032Z,4.35
2024-01-07T05:12:04.599Z,3.95
2024-01-07T05:14:41.879Z,3.97
2024-01-07T05:17:13.802Z,4.32
2024-01-07T05:19:41.532Z,4.60
2024-01-07T05:22:09.392Z,4.00
2024-01-07T05:24:37.116Z,3.97
2024-01-07T05:27:04.845Z,3.58
2024-01-07T05:29:32.692Z,3.88
2024-01-07T05:32:01.437Z,4.15
2024-01-07T05:34:29.295Z,3.65
2024-01-07T05:36:57.241Z,3.65
2024-01-07T05:39:25.253Z,3.85
2024-01-07T05:41:53.323Z,3.88
2024-01-07T05:44:30.164Z,3.35
2024-01-07T05:47:03.203Z,3.88
2024-01-07T05:49:37.032Z,3.30
2024-01-07T05:52:05.573Z,3.72
2024-01-07T05:54:33.431Z,3.92
2024-01-07T05:57:01.206Z,3.78
2024-01-07T05:59:31.346Z,3.60
2024-01-07T06:02:05.333Z,3.30
2024-01-07T06:04:35.765Z,3.53
2024-01-07T06:07:05.996Z,3.03
2024-01-07T06:09:37.280Z,3.50
2024-01-07T06:12:07.793Z,3.50
2024-01-07T06:14:36.607Z,3.40
2024-01-07T06:17:05.180Z,3.08
2024-01-07T06:19:33.519Z,3.60
2024-01-07T06:22:01.254Z,3.50
2024-01-07T06:24:28.927Z,3.22
2024-01-07T06:26:56.596Z,3.53
2024-01-07T06:29:24.269Z,2.80
2024-01-07T06:31:52.016Z,3.20
2024-01-07T06:34:20.215Z,3.10
2024-01-07T06:36:47.962Z,3.20
2024-01-07T06:39:16.067Z,3.20
2024-01-07T06:41:43.977Z,3.30
2024-01-07T06:44:11.613Z,3.05
2024-01-07T06:46:39.228Z,3.28
2024-01-07T06:49:06.925Z,3.05
2024-01-07T06:51:34.742Z,2.80
2024-01-07T06:54:02.439Z,2.67
2024-01-07T06:56:30.115Z,2.63
2024-01-07T06:58:57.791Z,2.80
2024-01-07T07:01:25.632Z,2.65
2024-01-07T07:03:53.683Z,2.80
2024-01-07T07:06:21.482Z,2.72
2024-01-07T07:08:49.110Z,3.08
2024-01-07T07:11:16.974Z,2.63
2024-01-07T07:13:44.657Z,2.78
2024-01-07T07:16:13.483Z,2.83
2024-01-07T07:18:41.387Z,2.60
2024-01-07T07:21:09.480Z,3.00
2024-01-07T07:23:37.306Z,2.90
2024-01-07T07:26:04.966Z,2.90
2024-01-07T07:28:32.633Z,3.40
2024-01-07T07:31:00.496Z,2.60
2024-01-07T07:33:28.415Z,2.88
2024-01-07T07:35:56.248Z,3.03
2024-01-07T07:38:24.150Z,2.78
2024-01-07T07:40:54.418Z,2.80
2024-01-07T07:43:22.684Z,2.70
2024-01-07T07:45:50.555Z,2.53
2024-01-07T07:48:18.919Z,2.85
2024-01-07T07:50:46.566Z,2.90
2024-01-07T07:53:14.228Z,3.20
2024-01-07T07:55:41.872Z,2.80
2024-01-07T07:58:09.836Z,2.90
2024-01-07T08:00:37.988Z,2.88
2024-01-07T08:03:05.744Z,2.80
2024-01-07T08:05:33.545Z,2.67
2024-01-07T08:08:01.274Z,2.80
2024-01-07T08:10:29.753Z,2.45
2024-01-07T08:12:57.676Z,2.78
2024-01-07T08:15:27.268Z,2.55
2024-01-07T08:17:55.034Z,2.83
2024-01-07T08:20:23.590Z,2.60
2024-01-07T08:22:51.792Z,2.75
2024-01-07T08:25:19.638Z,2.80
2024-01-07T08:27:50.284Z,2.22
2024-01-07T08:30:19.776Z,2.70
2024-01-07T08:32:47.656Z,2.75
2024-01-07T08:35:17.841Z,2.42
2024-01-07T08:37:46.939Z,2.90
2024-01-07T08:40:15.179Z,2.72
2024-01-07T08:42:43.147Z,2.47
2024-01-07T08:45:10.814Z,2.42
2024-01-07T08:47:43.036Z,2.55
2024-01-07T08:50:13.938Z,2.80
2024-01-07T08:52:41.790Z,2.55
2024-01-07T08:55:11.188Z,2.70
2024-01-07T08:57:39.229Z,2.50
2024-01-07T09:00:08.741Z,2.38
2024-01-07T09:02:39.543Z,2.45
2024-01-07T09:05:08.642Z,2.47
2024-01-07T09:07:36.385Z,2.33
2024-01-07T09:10:04.285Z,2.35
2024-01-07T09:12:32.030Z,2.50
2024-01-07T09:15:00.622Z,2.22
2024-01-07T09:17:30.389Z,2.10
2024-01-07T09:20:00.760Z,2.00
2024-01-07T09:22:30.477Z,2.20
2024-01-07T09:24:59.801Z,2.22
2024-01-07T09:27:30.113Z,2.03
2024-01-07T09:29:59.373Z,2.15
2024-01-07T09:32:29.046Z,2.10
2024-01-07T09:34:56.929Z,2.15
2024-01-07T09:37:24.903Z,1.88
2024-01-07T09:39:52.599Z,2.30
2024-01-07T09:42:20.433Z,2.00
2024-01-07T09:44:48.327Z,2.05
2024-01-07T09:47:16.096Z,2.00
2024-01-07T09:49:45.459Z,1.90
2024-01-07T09:52:13.568Z,2.15
2024-01-07T09:54:41.876Z,2.20
2024-01-07T09:57:09.631Z,1.95
2024-01-07T09:59:38.148Z,1.92
2024-01-07T10:02:06.114Z,2.00
2024-01-07T10:04:34.219Z,2.20
2024-01-07T10:07:02.052Z,1.90
2024-01-07T10:09:29.874Z,2.03
2024-01-07T10:11:57.914Z,2.03
2024-01-07T10:14:27.567Z,2.15
2024-01-07T10:16:55.360Z,2.00
2024-01-07T10:19:23.735Z,2.00
2024-01-07T10:21:51.616Z,1.90
2024-01-07T10:24:21.714Z,1.80
2024-01-07T10:26:52.158Z,2.00
2024-01-07T10:29:23.800Z,1.90
2024-01-07T10:31:52.075Z,1.90
2024-01-07T10:34:21.053Z,1.90
2024-01-07T10:36:51.289Z,1.73
2024-01-07T10:39:22.463Z,1.73
2024-01-07T10:41:54.177Z,1.73
2024-01-07T10:44:24.809Z,1.80
2024-01-07T10:46:52.581Z,1.80
2024-01-07T10:49:20.409Z,1.80
2024-01-07T10:51:48.131Z,1.90
2024-01-07T10:54:15.904Z,2.05
2024-01-07T10:56:43.550Z,1.77
2024-01-07T10:59:11.290Z,1.75
2024-01-07T11:01:40.522Z,1.70
2024-01-07T11:04:08.521Z,1.70
2024-01-07T11:06:36.556Z,1.67
2024-01-07T11:09:04.713Z,1.70
2024-01-07T11:11:32.802Z,1.98
2024-01-07T11:14:00.979Z,1.80
2024-01-07T11:16:38.505Z,1.65
2024-01-07T11:19:08.711Z,1.65
2024-01-07T11:21:37.824Z,1.70
2024-01-07T11:24:11.922Z,1.50
2024-01-07T11:26:43.659Z,1.70
2024-01-07T11:29:12.111Z,1.50
2024-01-07T11:31:40.409Z,1.60
2024-01-07T11:34:09.060Z,1.48
2024-01-07T11:36:36.966Z,1.50
2024-01-07T11:39:05.150Z,1.48
2024-01-07T11:41:32.894Z,1.60
2024-01-07T11:44:05.211Z,1.50
2024-01-07T11:46:35.786Z,1.80
2024-01-07T11:49:04.241Z,1.42
2024-01-07T11:51:32.771Z,1.40
2024-01-07T11:54:01.015Z,1.50
2024-01-07T11:56:28.752Z,1.33
2024-01-07T11:58:57.521Z,1.50
2024-01-07T12:01:27.034Z,1.55
2024-01-07T12:03:57.846Z,1.50
2024-01-07T12:06:30.902Z,1.30
2024-01-07T12:09:06.238Z,1.35
2024-01-07T12:11:45.554Z,1.50
2024-01-07T12:14:17.854Z,1.50
2024-01-07T12:16:46.628Z,1.30
2024-01-07T12:19:14.563Z,1.70
2024-01-07T12:21:41.583Z,1.40
2024-01-07T12:24:09.415Z,1.42
2024-01-07T12:26:38.781Z,1.75
2024-01-07T12:29:08.069Z,1.50
2024-01-07T12:31:36.144Z,1.50
2024-01-07T12:34:04.325Z,1.70
2024-01-07T12:36:33.367Z,1.60
2024-01-07T12:39:01.131Z,1.70
2024-01-07T12:41:30.477Z,1.70
2024-01-07T12:43:58.452Z,1.65
2024-01-07T12:46:26.607Z,1.52
2024-01-07T12:48:54.554Z,1.48
2024-01-07T12:51:24.374Z,1.33
2024-01-07T12:53:52.520Z,1.80
2024-01-07T12:56:20.522Z,1.75
2024-01-07T12:58:48.449Z,1.58
2024-01-07T13:01:16.391Z,1.80
2024-01-07T13:03:44.280Z,1.63
2024-01-07T13:06:13.326Z,2.60
2024-01-07T13:08:41.281Z,1.77
2024-01-07T13:11:10.158Z,1.60
2024-01-07T13:13:38.530Z,1.40
2024-01-07T13:16:06.470Z,1.45
2024-01-07T13:18:35.202Z,1.73
2024-01-07T13:21:02.964Z,1.50
2024-01-07T13:23:30.938Z,1.40
2024-01-07T13:25:58.670Z,1.50
2024-01-07T13:28:26.598Z,1.50
2024-01-07T13:30:54.556Z,1.45
2024-01-07T13:33:23.107Z,1.33
2024-01-07T13:35:50.919Z,1.40
2024-01-07T13:38:19.195Z,1.48
2024-01-07T13:40:46.956Z,1.70
2024-01-07T13:43:14.960Z,1.40
2024-01-07T13:45:42.820Z,1.60
2024-01-07T13:48:10.650Z,1.50
2024-01-07T13:50:38.502Z,1.40
2024-01-07T13:53:06.222Z,1.50
2024-01-07T13:55:33.943Z,1.73
2024-01-07T13:58:02.055Z,1.58
2024-01-07T14:00:30.575Z,1.45
2024-01-07T14:02:58.329Z,1.58
2024-01-07T14:05:26.068Z,1.45
2024-01-07T14:07:54.061Z,1.42
2024-01-07T14:10:21.826Z,1.55
2024-01-07T14:12:49.712Z,1.50
2024-01-07T14:15:18.463Z,1.48
2024-01-07T14:17:46.346Z,1.45
2024-01-07T14:20:14.144Z,1.50
2024-01-07T14:22:41.876Z,1.40
2024-01-07T14:25:09.915Z,1.30
2024-01-07T14:27:37.732Z,1.50
2024-01-07T14:30:05.474Z,1.65
2024-01-07T14:32:34.421Z,1.30
2024-01-07T14:35:02.451Z,1.50
2024-01-07T14:37:30.274Z,1.50
2024-01-07T14:39:58.115Z,1.35
2024-01-07T14:42:26.157Z,1.55
2024-01-07T14:44:53.914Z,1.38
2024-01-07T14:47:22.706Z,1.52
2024-01-07T14:49:50.729Z,1.42
2024-01-07T14:52:18.492Z,1.80
2024-01-07T14:54:46.405Z,1.98
2024-01-07T14:57:14.108Z,2.03
2024-01-07T14:59:41.798Z,1.80
2024-01-07T15:02:11.676Z,1.70
2024-01-07T15:04:41.511Z,1.83
2024-01-07T15:07:09.300Z,2.10
2024-01-07T15:09:37.368Z,1.83
2024-01-07T15:12:05.174Z,2.03
2024-01-07T15:14:32.884Z,2.08
2024-01-07T15:17:00.921Z,1.88
2024-01-07T15:19:28.750Z,2.20
2024-01-07T15:21:56.557Z,2.13
2024-01-07T15:24:24.329Z,2.17
2024-01-07T15:26:52.099Z,2.30
2024-01-07T15:29:21.049Z,2.30
2024-01-07T15:31:48.852Z,1.88
2024-01-07T15:34:16.811Z,1.90
2024-01-07T15:36:53.704Z,2.13
2024-01-07T15:39:21.598Z,2.63
2024-01-07T15:41:49.402Z,2.15
2024-01-07T15:44:17.193Z,2.17
2024-01-07T15:46:44.881Z,2.35
2024-01-07T15:49:12.743Z,2.75
2024-01-07T15:51:42.159Z,2.10
2024-01-07T15:54:09.920Z,2.58
2024-01-07T15:56:38.092Z,2.10
2024-01-07T15:59:05.844Z,2.38
2024-01-07T16:01:33.648Z,2.40
2024-01-07T16:04:01.729Z,2.13
2024-01-07T16:06:29.709Z,2.33
2024-01-07T16:08:58.033Z,2.20
2024-01-07T16:11:26.235Z,2.40
2024-01-07T16:13:54.244Z,1.98
2024-01-07T16:16:21.917Z,2.35
2024-01-07T16:18:50.476Z,2.13
2024-01-07T16:21:21.980Z,1.98
2024-01-07T16:23:50.881Z,2.42
2024-01-07T16:26:19.680Z,2.88
2024-01-07T16:28:48.086Z,2.42
2024-01-07T16:31:16.165Z,2.28
2024-01-07T16:33:44.791Z,2.13
2024-01-07T16:36:12.755Z,2.35
2024-01-07T16:38:40.760Z,2.08
2024-01-07T16:41:09.500Z,2.25
2024-01-07T16:43:37.628Z,2.13
2024-01-07T16:46:05.309Z,2.03
2024-01-07T16:51:03.957Z,2.40
2024-01-07T16:53:31.834Z,1.85
2024-01-07T16:55:59.686Z,2.58
2024-01-07T16:58:27.458Z,2.30
2024-01-07T17:00:58.405Z,2.50
2024-01-07T17:03:26.258Z,2.42
2024-01-07T17:05:54.056Z,2.47
2024-01-07T17:08:21.864Z,2.40
2024-01-07T17:10:49.613Z,2.63
2024-01-07T17:13:17.638Z,2.55
2024-01-07T17:15:45.483Z,2.30
2024-01-07T17:18:13.593Z,2.78
2024-01-07T17:20:42.729Z,2.45
2024-01-07T17:23:10.740Z,2.42
2024-01-07T17:25:38.803Z,2.10
2024-01-07T17:28:07.434Z,2.55
2024-01-07T17:30:36.317Z,2.60
2024-01-07T17:33:04.458Z,2.95
2024-01-07T17:35:32.570Z,2.55
2024-01-07T17:38:00.489Z,2.33
2024-01-07T17:40:28.172Z,2.83
2024-01-07T17:42:56.230Z,2.40
2024-01-07T17:45:24.998Z,3.25
2024-01-07T17:47:54.337Z,3.03
2024-01-07T17:50:22.577Z,2.53
2024-01-07T17:52:51.782Z,2.78
2024-01-07T17:55:20.233Z,2.50
2024-01-07T17:57:48.996Z,2.17
2024-01-07T18:00:19.497Z,2.25
2024-01-07T18:02:47.919Z,2.50
2024-01-07T18:05:16.449Z,2.63
2024-01-07T18:07:44.453Z,2.70
2024-01-07T18:10:12.912Z,3.70
2024-01-07T18:12:40.833Z,3.40
2024-01-07T18:15:08.982Z,2.95
2024-01-07T18:17:37.210Z,2.90
2024-01-07T18:20:05.385Z,3.40
2024-01-07T18:22:33.618Z,2.92
2024-01-07T18:25:01.350Z,2.97
2024-01-07T18:27:29.041Z,2.72
2024-01-07T18:29:58.162Z,3.17
2024-01-07T18:32:26.029Z,2.65
2024-01-07T18:34:54.730Z,2.85
2024-01-07T18:37:22.859Z,2.58
2024-01-07T18:39:50.506Z,2.83
2024-01-07T18:42:18.214Z,2.70
2024-01-07T18:44:46.000Z,2.58
2024-01-07T18:47:14.732Z,3.97
2024-01-07T18:49:42.498Z,3.38
2024-01-07T18:52:13.557Z,3.65
2024-01-07T18:54:42.572Z,3.20
2024-01-07T18:57:10.463Z,3.25
2024-01-07T18:59:38.223Z,3.20
2024-01-07T19:02:05.991Z,3.45
2024-01-07T19:04:33.778Z,3.45
2024-01-07T19:07:02.452Z,3.80
2024-01-07T19:09:30.065Z,3.15
2024-01-07T19:11:57.743Z,2.97
2024-01-07T19:14:25.700Z,3.13
2024-01-07T19:16:53.532Z,3.35
2024-01-07T19:19:21.614Z,3.30
2024-01-07T19:21:49.366Z,3.13
2024-01-07T19:24:17.053Z,3.08
2024-01-07T19:26:46.595Z,3.10
2024-01-07T19:29:14.486Z,3.10
2024-01-07T19:31:42.447Z,2.80
2024-01-07T19:34:10.432Z,3.05
2024-01-07T19:36:38.128Z,3.53
2024-01-07T19:39:08.109Z,3.40
2024-01-07T19:41:38.017Z,3.08
2024-01-07T19:44:06.020Z,3.10
2024-01-07T19:46:33.747Z,2.90
2024-01-07T19:49:02.321Z,3.33
2024-01-07T19:51:29.973Z,3.47
2024-01-07T19:53:57.815Z,3.05
2024-01-07T19:56:25.805Z,3.22
2024-01-07T19:58:53.734Z,3.05
2024-01-07T20:01:21.601Z,3.08
2024-01-07T20:03:49.407Z,3.10
2024-01-07T20:06:17.370Z,2.97
2024-01-07T20:08:45.232Z,3.17
2024-01-07T20:11:13.015Z,3.33
2024-01-07T20:13:40.671Z,3.45
2024-01-07T20:16:08.381Z,3.10
2024-01-07T20:18:36.259Z,2.63
2024-01-07T20:21:03.963Z,3.00
2024-01-07T20:23:31.744Z,3.08
2024-01-07T20:26:00.775Z,3.45
2024-01-07T20:28:28.575Z,2.72
2024-01-07T20:30:56.350Z,3.20
2024-01-07T20:33:24.239Z,3.10
2024-01-07T20:35:55.809Z,2.90
2024-01-07T20:38:24.514Z,2.97
2024-01-07T20:40:52.344Z,3.30
2024-01-07T20:43:20.091Z,3.00
2024-01-07T20:45:47.847Z,3.22
2024-01-07T20:48:15.723Z,3.28
2024-01-07T20:50:43.421Z,2.83
2024-01-07T20:53:11.205Z,2.97
2024-01-07T20:55:40.160Z,2.85
2024-01-07T20:58:08.204Z,2.97
2024-01-07T21:00:36.004Z,3.30
2024-01-07T21:03:04.590Z,2.97
2024-01-07T21:05:32.443Z,3.15
2024-01-07T21:08:00.322Z,3.35
2024-01-07T21:10:28.300Z,3.03
2024-01-07T21:12:58.843Z,2.92
2024-01-07T21:15:27.064Z,3.08
2024-01-07T21:18:01.139Z,2.78
2024-01-07T21:20:29.054Z,2.80
2024-01-07T21:22:56.972Z,2.92
2024-01-07T21:25:24.859Z,2.90
2024-01-07T21:27:52.585Z,2.60
2024-01-07T21:30:20.478Z,2.83
2024-01-07T21:32:48.486Z,3.20
2024-01-07T21:35:16.224Z,2.90
2024-01-07T21:37:44.830Z,2.80
2024-01-07T21:40:12.993Z,3.03
2024-01-07T21:42:41.026Z,2.85
2024-01-07T21:45:08.703Z,3.05
2024-01-07T21:47:36.581Z,2.80
2024-01-07T21:50:04.609Z,3.00
2024-01-07T21:52:32.436Z,2.95
2024-01-07T21:55:00.278Z,2.95
2024-01-07T21:57:28.558Z,3.20
2024-01-07T21:59:56.732Z,2.88
2024-01-07T22:02:24.547Z,3.10
2024-01-07T22:04:52.373Z,3.20
2024-01-07T22:07:21.899Z,2.75
2024-01-07T22:09:49.691Z,3.10
2024-01-07T22:12:17.605Z,3.28
2024-01-07T22:14:45.290Z,2.90
2024-01-07T22:17:13.000Z,2.67
2024-01-07T22:19:40.770Z,2.83
2024-01-07T22:22:09.270Z,3.10
2024-01-07T22:24:36.924Z,2.75
2024-01-07T22:27:04.619Z,2.90
2024-01-07T22:29:32.316Z,3.10
2024-01-07T22:32:00.362Z,2.75
2024-01-07T22:34:28.277Z,3.03
2024-01-07T22:36:55.993Z,2.70
2024-01-07T22:39:26.086Z,3.08
2024-01-07T22:41:53.798Z,3.08
2024-01-07T22:44:21.598Z,3.10
2024-01-07T22:46:50.614Z,2.72
2024-01-07T22:49:18.701Z,2.83
2024-01-07T22:51:46.618Z,2.97
2024-01-07T22:54:14.379Z,3.00
2024-01-07T22:56:42.976Z,2.90
2024-01-07T22:59:12.358Z,3.00
2024-01-07T23:01:40.626Z,2.70
2024-01-07T23:04:08.522Z,2.92
2024-01-07T23:06:38.461Z,3.25
2024-01-07T23:09:06.792Z,2.65
2024-01-07T23:11:35.246Z,2.70
2024-01-07T23:14:06.228Z,2.60
2024-01-07T23:16:36.034Z,2.53
2024-01-07T23:19:07.113Z,2.70
2024-01-07T23:21:38.952Z,2.65
2024-01-07T23:24:07.599Z,2.85
2024-01-07T23:26:35.908Z,2.42
2024-01-07T23:29:03.958Z,2.50
2024-01-07T23:31:31.838Z,2.80
2024-01-07T23:34:01.670Z,2.78
2024-01-07T23:36:31.502Z,3.00
2024-01-07T23:39:00.813Z,2.78
2024-01-07T23:41:28.907Z,2.80
2024-01-07T23:43:56.737Z,2.90
2024-01-07T23:46:24.534Z,2.83
2024-01-07T23:48:52.260Z,2.80
2024-01-07T23:51:22.379Z,2.80
2024-01-07T23:53:50.133Z,2.70
2024-01-07T23:56:17.952Z,2.80
2024-01-07T23:58:45.807Z,2.85
